sensor_id;sensor_type;location;lat;lon;timestamp;P1;durP1;ratioP1;P2;durP2;ratioP2
67896;SDS011;54698;48.428;9.964;2022-11-20T00:01:18;7.93;;;2.50;;
67896;SDS011;54698;48.428;9.964;2022-11-20T00:03:46;5.73;;;2.70;;
67896;SDS011;54698;48.428;9.964;2022-11-20T00:06:13;6.17;;;2.20;;
67896;SDS011;54698;48.428;9.964;2022-11-20T00:08:41;10.90;;;2.70;;
67896;SDS011;54698;48.428;9.964;2022-11-20T00:11:10;6.23;;;2.37;;
67896;SDS011;54698;48.428;9.964;2022-11-20T00:13:38;7.27;;;2.30;;
67896;SDS011;54698;48.428;9.964;2022-11-20T00:16:04;4.70;;;1.90;;
67896;SDS011;54698;48.428;9.964;2022-11-20T00:18:33;4.90;;;2.00;;
67896;SDS011;54698;48.428;9.964;2022-11-20T00:21:01;4.50;;;2.30;;
67896;SDS011;54698;48.428;9.964;2022-11-20T00:23:27;6.47;;;2.23;;
67896;SDS011;54698;48.428;9.964;2022-11-20T00:25:53;6.50;;;2.70;;
67896;SDS011;54698;48.428;9.964;2022-11-20T00:28:21;6.27;;;2.50;;
67896;SDS011;54698;48.428;9.964;2022-11-20T00:30:47;5.33;;;2.70;;
67896;SDS011;54698;48.428;9.964;2022-11-20T00:33:12;4.40;;;1.77;;
67896;SDS011;54698;48.428;9.964;2022-11-20T00:35:38;7.43;;;2.00;;
67896;SDS011;54698;48.428;9.964;2022-11-20T00:38:04;6.63;;;1.87;;
67896;SDS011;54698;48.428;9.964;2022-11-20T00:40:30;3.90;;;1.50;;
67896;SDS011;54698;48.428;9.964;2022-11-20T00:42:56;6.53;;;2.20;;
67896;SDS011;54698;48.428;9.964;2022-11-20T00:45:23;4.87;;;1.80;;
67896;SDS011;54698;48.428;9.964;2022-11-20T00:47:49;5.03;;;1.70;;
67896;SDS011;54698;48.428;9.964;2022-11-20T00:50:15;4.43;;;1.73;;
67896;SDS011;54698;48.428;9.964;2022-11-20T00:52:41;4.27;;;1.60;;
67896;SDS011;54698;48.428;9.964;2022-11-20T00:55:07;6.43;;;2.00;;
67896;SDS011;54698;48.428;9.964;2022-11-20T00:57:33;5.87;;;1.77;;
67896;SDS011;54698;48.428;9.964;2022-11-20T00:59:59;4.60;;;1.90;;
67896;SDS011;54698;48.428;9.964;2022-11-20T01:02:26;6.33;;;1.93;;
67896;SDS011;54698;48.428;9.964;2022-11-20T01:04:52;4.23;;;1.80;;
67896;SDS011;54698;48.428;9.964;2022-11-20T01:07:18;5.77;;;3.00;;
67896;SDS011;54698;48.428;9.964;2022-11-20T01:09:43;6.90;;;2.97;;
67896;SDS011;54698;48.428;9.964;2022-11-20T01:12:09;7.43;;;3.00;;
67896;SDS011;54698;48.428;9.964;2022-11-20T01:14:35;6.30;;;2.67;;
67896;SDS011;54698;48.428;9.964;2022-11-20T01:17:01;7.33;;;3.73;;
67896;SDS011;54698;48.428;9.964;2022-11-20T01:19:29;7.13;;;3.03;;
67896;SDS011;54698;48.428;9.964;2022-11-20T01:21:54;5.40;;;2.73;;
67896;SDS011;54698;48.428;9.964;2022-11-20T01:24:21;7.40;;;2.90;;
67896;SDS011;54698;48.428;9.964;2022-11-20T01:26:48;6.30;;;2.50;;
67896;SDS011;54698;48.428;9.964;2022-11-20T01:29:16;7.70;;;3.23;;
67896;SDS011;54698;48.428;9.964;2022-11-20T01:31:44;8.73;;;3.13;;
67896;SDS011;54698;48.428;9.964;2022-11-20T01:34:11;6.63;;;3.10;;
67896;SDS011;54698;48.428;9.964;2022-11-20T01:36:41;6.73;;;3.07;;
67896;SDS011;54698;48.428;9.964;2022-11-20T01:39:11;7.67;;;3.73;;
67896;SDS011;54698;48.428;9.964;2022-11-20T01:41:39;7.93;;;3.63;;
67896;SDS011;54698;48.428;9.964;2022-11-20T01:44:06;8.00;;;3.00;;
67896;SDS011;54698;48.428;9.964;2022-11-20T01:46:34;7.33;;;3.43;;
67896;SDS011;54698;48.428;9.964;2022-11-20T01:49:02;7.67;;;3.43;;
67896;SDS011;54698;48.428;9.964;2022-11-20T01:51:34;9.97;;;4.20;;
67896;SDS011;54698;48.428;9.964;2022-11-20T01:54:07;8.00;;;3.63;;
67896;SDS011;54698;48.428;9.964;2022-11-20T01:56:38;8.27;;;4.00;;
67896;SDS011;54698;48.428;9.964;2022-11-20T01:59:08;9.40;;;4.63;;
67896;SDS011;54698;48.428;9.964;2022-11-20T02:01:37;9.47;;;4.53;;
67896;SDS011;54698;48.428;9.964;2022-11-20T02:04:03;8.97;;;4.10;;
67896;SDS011;54698;48.428;9.964;2022-11-20T02:06:30;9.20;;;4.73;;
67896;SDS011;54698;48.428;9.964;2022-11-20T02:09:02;11.37;;;4.40;;
67896;SDS011;54698;48.428;9.964;2022-11-20T02:11:29;8.87;;;4.53;;
67896;SDS011;54698;48.428;9.964;2022-11-20T02:13:55;8.67;;;4.20;;
67896;SDS011;54698;48.428;9.964;2022-11-20T02:16:22;9.97;;;3.83;;
67896;SDS011;54698;48.428;9.964;2022-11-20T02:18:50;8.33;;;3.77;;
67896;SDS011;54698;48.428;9.964;2022-11-20T02:21:21;9.03;;;3.97;;
67896;SDS011;54698;48.428;9.964;2022-11-20T02:24:08;8.90;;;4.20;;
67896;SDS011;54698;48.428;9.964;2022-11-20T02:26:38;14.25;;;3.53;;
67896;SDS011;54698;48.428;9.964;2022-11-20T02:29:14;9.00;;;4.37;;
67896;SDS011;54698;48.428;9.964;2022-11-20T02:31:42;8.87;;;3.40;;
67896;SDS011;54698;48.428;9.964;2022-11-20T02:34:10;11.47;;;3.77;;
67896;SDS011;54698;48.428;9.964;2022-11-20T02:36:36;8.47;;;3.40;;
67896;SDS011;54698;48.428;9.964;2022-11-20T02:39:04;8.13;;;3.17;;
67896;SDS011;54698;48.428;9.964;2022-11-20T02:41:33;8.90;;;3.33;;
67896;SDS011;54698;48.428;9.964;2022-11-20T02:44:00;8.73;;;4.23;;
67896;SDS011;54698;48.428;9.964;2022-11-20T02:46:27;9.23;;;3.90;;
67896;SDS011;54698;48.428;9.964;2022-11-20T02:48:53;7.47;;;3.37;;
67896;SDS011;54698;48.428;9.964;2022-11-20T02:51:19;9.90;;;3.60;;
67896;SDS011;54698;48.428;9.964;2022-11-20T02:53:45;9.60;;;4.47;;
67896;SDS011;54698;48.428;9.964;2022-11-20T02:56:13;7.87;;;3.57;;
67896;SDS011;54698;48.428;9.964;2022-11-20T02:58:39;8.73;;;3.87;;
67896;SDS011;54698;48.428;9.964;2022-11-20T03:01:05;8.60;;;3.97;;
67896;SDS011;54698;48.428;9.964;2022-11-20T03:03:30;10.13;;;4.07;;
67896;SDS011;54698;48.428;9.964;2022-11-20T03:05:58;8.43;;;4.10;;
67896;SDS011;54698;48.428;9.964;2022-11-20T03:08:24;7.73;;;3.40;;
67896;SDS011;54698;48.428;9.964;2022-11-20T03:10:50;8.00;;;4.03;;
67896;SDS011;54698;48.428;9.964;2022-11-20T03:13:17;7.43;;;3.93;;
67896;SDS011;54698;48.428;9.964;2022-11-20T03:15:43;10.73;;;3.90;;
67896;SDS011;54698;48.428;9.964;2022-11-20T03:18:09;8.53;;;3.50;;
67896;SDS011;54698;48.428;9.964;2022-11-20T03:20:35;9.43;;;4.50;;
67896;SDS011;54698;48.428;9.964;2022-11-20T03:23:01;8.47;;;3.67;;
67896;SDS011;54698;48.428;9.964;2022-11-20T03:25:28;6.90;;;3.50;;
67896;SDS011;54698;48.428;9.964;2022-11-20T03:27:53;10.87;;;4.27;;
67896;SDS011;54698;48.428;9.964;2022-11-20T03:30:21;9.07;;;4.30;;
67896;SDS011;54698;48.428;9.964;2022-11-20T03:32:47;7.57;;;3.80;;
67896;SDS011;54698;48.428;9.964;2022-11-20T03:35:13;8.63;;;4.20;;
67896;SDS011;54698;48.428;9.964;2022-11-20T03:37:39;8.73;;;4.43;;
67896;SDS011;54698;48.428;9.964;2022-11-20T03:40:05;7.83;;;4.20;;
67896;SDS011;54698;48.428;9.964;2022-11-20T03:42:33;10.83;;;4.27;;
67896;SDS011;54698;48.428;9.964;2022-11-20T03:44:58;9.20;;;4.00;;
67896;SDS011;54698;48.428;9.964;2022-11-20T03:47:26;10.57;;;4.20;;
67896;SDS011;54698;48.428;9.964;2022-11-20T03:49:51;8.03;;;3.43;;
67896;SDS011;54698;48.428;9.964;2022-11-20T03:52:17;10.20;;;3.87;;
67896;SDS011;54698;48.428;9.964;2022-11-20T03:54:43;7.87;;;4.07;;
67896;SDS011;54698;48.428;9.964;2022-11-20T03:57:09;9.47;;;5.17;;
67896;SDS011;54698;48.428;9.964;2022-11-20T03:59:35;8.70;;;4.20;;
67896;SDS011;54698;48.428;9.964;2022-11-20T04:02:01;7.60;;;4.27;;
67896;SDS011;54698;48.428;9.964;2022-11-20T04:04:28;8.73;;;3.83;;
67896;SDS011;54698;48.428;9.964;2022-11-20T04:06:54;8.17;;;4.17;;
67896;SDS011;54698;48.428;9.964;2022-11-20T04:09:20;9.23;;;4.63;;
67896;SDS011;54698;48.428;9.964;2022-11-20T04:11:46;8.97;;;4.90;;
67896;SDS011;54698;48.428;9.964;2022-11-20T04:14:12;8.70;;;3.83;;
67896;SDS011;54698;48.428;9.964;2022-11-20T04:16:40;10.07;;;4.37;;
67896;SDS011;54698;48.428;9.964;2022-11-20T04:19:10;8.67;;;3.90;;
67896;SDS011;54698;48.428;9.964;2022-11-20T04:21:40;8.70;;;3.70;;
67896;SDS011;54698;48.428;9.964;2022-11-20T04:24:06;6.73;;;3.60;;
67896;SDS011;54698;48.428;9.964;2022-11-20T04:26:32;7.87;;;3.40;;
67896;SDS011;54698;48.428;9.964;2022-11-20T04:28:59;7.87;;;3.67;;
67896;SDS011;54698;48.428;9.964;2022-11-20T04:31:26;8.63;;;4.33;;
67896;SDS011;54698;48.428;9.964;2022-11-20T04:33:54;7.43;;;3.80;;
67896;SDS011;54698;48.428;9.964;2022-11-20T04:36:21;6.70;;;3.43;;
67896;SDS011;54698;48.428;9.964;2022-11-20T04:38:51;7.83;;;4.10;;
67896;SDS011;54698;48.428;9.964;2022-11-20T04:41:19;8.63;;;4.60;;
67896;SDS011;54698;48.428;9.964;2022-11-20T04:43:47;8.97;;;4.07;;
67896;SDS011;54698;48.428;9.964;2022-11-20T04:46:15;10.00;;;4.03;;
67896;SDS011;54698;48.428;9.964;2022-11-20T04:48:41;8.13;;;3.97;;
67896;SDS011;54698;48.428;9.964;2022-11-20T04:51:07;8.70;;;3.50;;
67896;SDS011;54698;48.428;9.964;2022-11-20T04:53:33;9.73;;;4.33;;
67896;SDS011;54698;48.428;9.964;2022-11-20T04:56:01;9.03;;;3.40;;
67896;SDS011;54698;48.428;9.964;2022-11-20T04:58:27;8.43;;;4.17;;
67896;SDS011;54698;48.428;9.964;2022-11-20T05:00:59;9.50;;;3.93;;
67896;SDS011;54698;48.428;9.964;2022-11-20T05:03:26;10.13;;;3.50;;
67896;SDS011;54698;48.428;9.964;2022-11-20T05:05:52;9.30;;;4.20;;
67896;SDS011;54698;48.428;9.964;2022-11-20T05:08:18;7.47;;;3.63;;
67896;SDS011;54698;48.428;9.964;2022-11-20T05:10:44;7.37;;;3.13;;
67896;SDS011;54698;48.428;9.964;2022-11-20T05:13:11;6.27;;;3.17;;
67896;SDS011;54698;48.428;9.964;2022-11-20T05:15:37;6.87;;;2.97;;
67896;SDS011;54698;48.428;9.964;2022-11-20T05:18:03;7.03;;;3.30;;
67896;SDS011;54698;48.428;9.964;2022-11-20T05:20:29;7.07;;;2.90;;
67896;SDS011;54698;48.428;9.964;2022-11-20T05:22:56;8.73;;;3.60;;
67896;SDS011;54698;48.428;9.964;2022-11-20T05:25:22;6.30;;;2.73;;
67896;SDS011;54698;48.428;9.964;2022-11-20T05:27:48;6.90;;;4.83;;
67896;SDS011;54698;48.428;9.964;2022-11-20T05:30:15;6.83;;;2.67;;
67896;SDS011;54698;48.428;9.964;2022-11-20T05:32:41;6.07;;;2.70;;
67896;SDS011;54698;48.428;9.964;2022-11-20T05:35:07;5.50;;;2.47;;
67896;SDS011;54698;48.428;9.964;2022-11-20T05:37:33;6.20;;;2.80;;
67896;SDS011;54698;48.428;9.964;2022-11-20T05:39:59;6.03;;;2.53;;
67896;SDS011;54698;48.428;9.964;2022-11-20T05:42:25;6.20;;;3.10;;
67896;SDS011;54698;48.428;9.964;2022-11-20T05:44:51;5.73;;;2.00;;
67896;SDS011;54698;48.428;9.964;2022-11-20T05:47:18;9.80;;;3.27;;
67896;SDS011;54698;48.428;9.964;2022-11-20T05:49:44;6.97;;;3.23;;
67896;SDS011;54698;48.428;9.964;2022-11-20T05:52:10;8.43;;;2.60;;
67896;SDS011;54698;48.428;9.964;2022-11-20T05:54:36;9.57;;;3.53;;
67896;SDS011;54698;48.428;9.964;2022-11-20T05:57:02;6.87;;;3.70;;
67896;SDS011;54698;48.428;9.964;2022-11-20T05:59:28;6.80;;;3.50;;
67896;SDS011;54698;48.428;9.964;2022-11-20T06:01:54;8.60;;;3.30;;
67896;SDS011;54698;48.428;9.964;2022-11-20T06:04:21;11.50;;;3.60;;
67896;SDS011;54698;48.428;9.964;2022-11-20T06:06:47;7.87;;;3.67;;
67896;SDS011;54698;48.428;9.964;2022-11-20T06:09:13;10.00;;;3.63;;
67896;SDS011;54698;48.428;9.964;2022-11-20T06:11:39;8.03;;;3.87;;
67896;SDS011;54698;48.428;9.964;2022-11-20T06:14:05;11.00;;;4.03;;
67896;SDS011;54698;48.428;9.964;2022-11-20T06:16:31;7.13;;;3.23;;
67896;SDS011;54698;48.428;9.964;2022-11-20T06:18:57;11.00;;;4.33;;
67896;SDS011;54698;48.428;9.964;2022-11-20T06:21:24;8.00;;;4.03;;
67896;SDS011;54698;48.428;9.964;2022-11-20T06:23:51;8.33;;;3.90;;
67896;SDS011;54698;48.428;9.964;2022-11-20T06:26:18;8.73;;;3.87;;
67896;SDS011;54698;48.428;9.964;2022-11-20T06:28:46;7.27;;;3.77;;
67896;SDS011;54698;48.428;9.964;2022-11-20T06:31:12;8.80;;;4.20;;
67896;SDS011;54698;48.428;9.964;2022-11-20T06:33:40;9.60;;;4.07;;
67896;SDS011;54698;48.428;9.964;2022-11-20T06:36:07;9.00;;;4.33;;
67896;SDS011;54698;48.428;9.964;2022-11-20T06:38:36;9.87;;;4.47;;
67896;SDS011;54698;48.428;9.964;2022-11-20T06:41:02;9.80;;;5.07;;
67896;SDS011;54698;48.428;9.964;2022-11-20T06:43:29;13.73;;;5.87;;
67896;SDS011;54698;48.428;9.964;2022-11-20T06:45:55;12.67;;;4.67;;
67896;SDS011;54698;48.428;9.964;2022-11-20T06:48:23;12.77;;;5.10;;
67896;SDS011;54698;48.428;9.964;2022-11-20T06:50:51;11.73;;;5.10;;
67896;SDS011;54698;48.428;9.964;2022-11-20T06:53:17;11.63;;;5.77;;
67896;SDS011;54698;48.428;9.964;2022-11-20T06:55:45;11.53;;;5.70;;
67896;SDS011;54698;48.428;9.964;2022-11-20T06:58:12;11.60;;;4.87;;
67896;SDS011;54698;48.428;9.964;2022-11-20T07:00:39;12.47;;;4.90;;
67896;SDS011;54698;48.428;9.964;2022-11-20T07:03:05;10.90;;;5.17;;
67896;SDS011;54698;48.428;9.964;2022-11-20T07:05:32;10.77;;;5.07;;
67896;SDS011;54698;48.428;9.964;2022-11-20T07:07:59;10.10;;;5.10;;
67896;SDS011;54698;48.428;9.964;2022-11-20T07:10:25;9.90;;;5.20;;
67896;SDS011;54698;48.428;9.964;2022-11-20T07:12:52;12.87;;;6.47;;
67896;SDS011;54698;48.428;9.964;2022-11-20T07:15:19;10.20;;;5.37;;
67896;SDS011;54698;48.428;9.964;2022-11-20T07:17:47;10.70;;;5.13;;
67896;SDS011;54698;48.428;9.964;2022-11-20T07:20:14;12.80;;;6.20;;
67896;SDS011;54698;48.428;9.964;2022-11-20T07:22:40;10.13;;;4.77;;
67896;SDS011;54698;48.428;9.964;2022-11-20T07:25:06;11.10;;;5.27;;
67896;SDS011;54698;48.428;9.964;2022-11-20T07:27:34;12.73;;;5.07;;
67896;SDS011;54698;48.428;9.964;2022-11-20T07:30:01;13.27;;;5.77;;
67896;SDS011;54698;48.428;9.964;2022-11-20T07:32:28;9.83;;;4.43;;
67896;SDS011;54698;48.428;9.964;2022-11-20T07:34:54;10.30;;;4.50;;
67896;SDS011;54698;48.428;9.964;2022-11-20T07:37:20;11.77;;;4.90;;
67896;SDS011;54698;48.428;9.964;2022-11-20T07:39:46;9.50;;;4.87;;
67896;SDS011;54698;48.428;9.964;2022-11-20T07:42:12;10.47;;;5.33;;
67896;SDS011;54698;48.428;9.964;2022-11-20T07:44:38;8.50;;;4.40;;
67896;SDS011;54698;48.428;9.964;2022-11-20T07:47:05;10.23;;;5.00;;
67896;SDS011;54698;48.428;9.964;2022-11-20T07:49:31;10.80;;;5.50;;
67896;SDS011;54698;48.428;9.964;2022-11-20T07:51:57;9.57;;;4.57;;
67896;SDS011;54698;48.428;9.964;2022-11-20T07:54:23;8.97;;;4.60;;
67896;SDS011;54698;48.428;9.964;2022-11-20T07:56:49;9.23;;;4.63;;
67896;SDS011;54698;48.428;9.964;2022-11-20T07:59:15;7.40;;;3.87;;
67896;SDS011;54698;48.428;9.964;2022-11-20T08:01:41;9.13;;;3.87;;
67896;SDS011;54698;48.428;9.964;2022-11-20T08:04:09;8.10;;;3.30;;
67896;SDS011;54698;48.428;9.964;2022-11-20T08:06:35;10.83;;;4.80;;
67896;SDS011;54698;48.428;9.964;2022-11-20T08:09:01;10.70;;;3.57;;
67896;SDS011;54698;48.428;9.964;2022-11-20T08:11:28;8.13;;;4.17;;
67896;SDS011;54698;48.428;9.964;2022-11-20T08:13:53;6.83;;;3.27;;
67896;SDS011;54698;48.428;9.964;2022-11-20T08:16:19;7.77;;;3.13;;
67896;SDS011;54698;48.428;9.964;2022-11-20T08:18:45;11.80;;;4.97;;
67896;SDS011;54698;48.428;9.964;2022-11-20T08:21:13;8.67;;;3.87;;
67896;SDS011;54698;48.428;9.964;2022-11-20T08:23:38;12.07;;;4.13;;
67896;SDS011;54698;48.428;9.964;2022-11-20T08:26:04;8.23;;;4.00;;
67896;SDS011;54698;48.428;9.964;2022-11-20T08:28:30;8.57;;;4.17;;
67896;SDS011;54698;48.428;9.964;2022-11-20T08:30:57;9.20;;;4.53;;
67896;SDS011;54698;48.428;9.964;2022-11-20T08:33:24;11.57;;;4.77;;
67896;SDS011;54698;48.428;9.964;2022-11-20T08:35:50;9.60;;;3.97;;
67896;SDS011;54698;48.428;9.964;2022-11-20T08:38:17;7.67;;;3.40;;
67896;SDS011;54698;48.428;9.964;2022-11-20T08:40:43;8.30;;;3.93;;
67896;SDS011;54698;48.428;9.964;2022-11-20T08:43:09;7.90;;;3.40;;
67896;SDS011;54698;48.428;9.964;2022-11-20T08:45:35;7.83;;;3.07;;
67896;SDS011;54698;48.428;9.964;2022-11-20T08:48:00;9.17;;;3.27;;
67896;SDS011;54698;48.428;9.964;2022-11-20T08:50:27;8.47;;;3.37;;
67896;SDS011;54698;48.428;9.964;2022-11-20T08:52:53;8.63;;;4.30;;
67896;SDS011;54698;48.428;9.964;2022-11-20T08:55:20;8.53;;;3.90;;
67896;SDS011;54698;48.428;9.964;2022-11-20T08:57:46;6.70;;;3.57;;
67896;SDS011;54698;48.428;9.964;2022-11-20T09:00:13;7.93;;;3.60;;
67896;SDS011;54698;48.428;9.964;2022-11-20T09:02:40;7.53;;;3.73;;
67896;SDS011;54698;48.428;9.964;2022-11-20T09:05:07;8.37;;;3.40;;
67896;SDS011;54698;48.428;9.964;2022-11-20T09:07:33;7.63;;;3.60;;
67896;SDS011;54698;48.428;9.964;2022-11-20T09:09:59;6.90;;;3.27;;
67896;SDS011;54698;48.428;9.964;2022-11-20T09:12:26;7.37;;;3.40;;
67896;SDS011;54698;48.428;9.964;2022-11-20T09:14:52;5.90;;;2.33;;
67896;SDS011;54698;48.428;9.964;2022-11-20T09:17:17;10.13;;;3.13;;
67896;SDS011;54698;48.428;9.964;2022-11-20T09:19:43;5.60;;;2.83;;
67896;SDS011;54698;48.428;9.964;2022-11-20T09:22:09;7.03;;;2.40;;
67896;SDS011;54698;48.428;9.964;2022-11-20T09:24:35;9.33;;;2.87;;
67896;SDS011;54698;48.428;9.964;2022-11-20T09:27:02;7.03;;;3.30;;
67896;SDS011;54698;48.428;9.964;2022-11-20T09:29:30;6.87;;;2.53;;
67896;SDS011;54698;48.428;9.964;2022-11-20T09:31:56;7.17;;;2.30;;
67896;SDS011;54698;48.428;9.964;2022-11-20T09:34:22;6.47;;;2.60;;
67896;SDS011;54698;48.428;9.964;2022-11-20T09:36:48;4.67;;;1.70;;
67896;SDS011;54698;48.428;9.964;2022-11-20T09:39:14;5.63;;;2.20;;
67896;SDS011;54698;48.428;9.964;2022-11-20T09:44:50;5.37;;;2.40;;
67896;SDS011;54698;48.428;9.964;2022-11-20T09:47:42;5.43;;;1.97;;
67896;SDS011;54698;48.428;9.964;2022-11-20T09:50:23;5.20;;;2.10;;
67896;SDS011;54698;48.428;9.964;2022-11-20T09:53:01;6.33;;;2.20;;
67896;SDS011;54698;48.428;9.964;2022-11-20T09:55:38;5.10;;;2.00;;
67896;SDS011;54698;48.428;9.964;2022-11-20T09:58:05;4.97;;;2.30;;
67896;SDS011;54698;48.428;9.964;2022-11-20T10:00:33;4.53;;;1.77;;
67896;SDS011;54698;48.428;9.964;2022-11-20T10:03:01;4.63;;;1.67;;
67896;SDS011;54698;48.428;9.964;2022-11-20T10:05:37;3.97;;;1.80;;
67896;SDS011;54698;48.428;9.964;2022-11-20T10:08:11;6.20;;;2.10;;
67896;SDS011;54698;48.428;9.964;2022-11-20T10:10:44;3.97;;;1.70;;
67896;SDS011;54698;48.428;9.964;2022-11-20T10:13:17;3.97;;;1.80;;
67896;SDS011;54698;48.428;9.964;2022-11-20T10:15:58;4.90;;;1.90;;
67896;SDS011;54698;48.428;9.964;2022-11-20T10:18:44;4.10;;;1.67;;
67896;SDS011;54698;48.428;9.964;2022-11-20T10:21:29;4.27;;;1.97;;
67896;SDS011;54698;48.428;9.964;2022-11-20T10:24:12;4.40;;;1.77;;
67896;SDS011;54698;48.428;9.964;2022-11-20T10:26:55;5.97;;;2.00;;
67896;SDS011;54698;48.428;9.964;2022-11-20T10:29:32;6.17;;;2.10;;
67896;SDS011;54698;48.428;9.964;2022-11-20T10:32:01;4.53;;;1.83;;
67896;SDS011;54698;48.428;9.964;2022-11-20T10:34:31;4.33;;;1.83;;
67896;SDS011;54698;48.428;9.964;2022-11-20T10:37:08;4.67;;;1.60;;
67896;SDS011;54698;48.428;9.964;2022-11-20T10:39:40;8.35;;;2.38;;
67896;SDS011;54698;48.428;9.964;2022-11-20T10:42:16;5.07;;;2.27;;
67896;SDS011;54698;48.428;9.964;2022-11-20T10:44:58;4.87;;;1.77;;
67896;SDS011;54698;48.428;9.964;2022-11-20T10:47:40;4.28;;;1.60;;
67896;SDS011;54698;48.428;9.964;2022-11-20T10:50:08;5.80;;;2.03;;
67896;SDS011;54698;48.428;9.964;2022-11-20T10:55:18;5.60;;;2.20;;
67896;SDS011;54698;48.428;9.964;2022-11-20T10:57:59;5.83;;;2.20;;
67896;SDS011;54698;48.428;9.964;2022-11-20T11:00:30;6.77;;;2.40;;
67896;SDS011;54698;48.428;9.964;2022-11-20T11:02:58;4.47;;;2.00;;
67896;SDS011;54698;48.428;9.964;2022-11-20T11:05:31;6.87;;;2.50;;
67896;SDS011;54698;48.428;9.964;2022-11-20T11:08:01;5.50;;;2.40;;
67896;SDS011;54698;48.428;9.964;2022-11-20T11:10:33;5.73;;;2.40;;
67896;SDS011;54698;48.428;9.964;2022-11-20T11:13:18;4.47;;;1.90;;
67896;SDS011;54698;48.428;9.964;2022-11-20T11:15:46;5.80;;;2.60;;
67896;SDS011;54698;48.428;9.964;2022-11-20T11:18:22;6.00;;;2.47;;
67896;SDS011;54698;48.428;9.964;2022-11-20T11:20:50;4.70;;;1.77;;
67896;SDS011;54698;48.428;9.964;2022-11-20T11:23:22;6.67;;;2.27;;
67896;SDS011;54698;48.428;9.964;2022-11-20T11:25:58;5.47;;;2.10;;
67896;SDS011;54698;48.428;9.964;2022-11-20T11:28:26;8.30;;;2.30;;
67896;SDS011;54698;48.428;9.964;2022-11-20T11:30:53;4.57;;;1.60;;
67896;SDS011;54698;48.428;9.964;2022-11-20T11:33:22;4.77;;;1.90;;
67896;SDS011;54698;48.428;9.964;2022-11-20T11:35:50;4.90;;;1.97;;
67896;SDS011;54698;48.428;9.964;2022-11-20T11:38:20;7.20;;;2.23;;
67896;SDS011;54698;48.428;9.964;2022-11-20T11:40:53;4.60;;;1.87;;
67896;SDS011;54698;48.428;9.964;2022-11-20T11:43:22;4.13;;;1.40;;
67896;SDS011;54698;48.428;9.964;2022-11-20T11:45:51;6.07;;;2.00;;
67896;SDS011;54698;48.428;9.964;2022-11-20T11:48:19;5.40;;;1.80;;
67896;SDS011;54698;48.428;9.964;2022-11-20T11:50:48;4.60;;;1.63;;
67896;SDS011;54698;48.428;9.964;2022-11-20T11:53:14;3.73;;;1.57;;
67896;SDS011;54698;48.428;9.964;2022-11-20T11:55:43;4.20;;;1.67;;
67896;SDS011;54698;48.428;9.964;2022-11-20T11:58:16;5.17;;;1.73;;
67896;SDS011;54698;48.428;9.964;2022-11-20T12:01:00;6.83;;;2.70;;
67896;SDS011;54698;48.428;9.964;2022-11-20T12:03:51;4.37;;;1.60;;
67896;SDS011;54698;48.428;9.964;2022-11-20T12:06:25;4.70;;;1.67;;
67896;SDS011;54698;48.428;9.964;2022-11-20T12:08:53;4.03;;;1.60;;
67896;SDS011;54698;48.428;9.964;2022-11-20T12:11:24;4.70;;;1.70;;
67896;SDS011;54698;48.428;9.964;2022-11-20T12:13:58;5.13;;;2.30;;
67896;SDS011;54698;48.428;9.964;2022-11-20T12:16:33;4.00;;;1.57;;
67896;SDS011;54698;48.428;9.964;2022-11-20T12:19:03;2.73;;;1.10;;
67896;SDS011;54698;48.428;9.964;2022-11-20T12:21:38;3.77;;;1.97;;
67896;SDS011;54698;48.428;9.964;2022-11-20T12:27:11;5.47;;;1.90;;
67896;SDS011;54698;48.428;9.964;2022-11-20T12:30:00;4.57;;;1.33;;
67896;SDS011;54698;48.428;9.964;2022-11-20T12:32:42;5.63;;;2.20;;
67896;SDS011;54698;48.428;9.964;2022-11-20T12:35:32;4.40;;;1.30;;
67896;SDS011;54698;48.428;9.964;2022-11-20T12:38:35;4.17;;;0.97;;
67896;SDS011;54698;48.428;9.964;2022-11-20T12:41:43;2.40;;;0.93;;
67896;SDS011;54698;48.428;9.964;2022-11-20T12:44:25;2.13;;;0.90;;
67896;SDS011;54698;48.428;9.964;2022-11-20T12:47:22;3.33;;;1.43;;
67896;SDS011;54698;48.428;9.964;2022-11-20T12:49:56;2.90;;;1.10;;
67896;SDS011;54698;48.428;9.964;2022-11-20T12:52:32;4.10;;;1.10;;
67896;SDS011;54698;48.428;9.964;2022-11-20T12:55:08;1.70;;;0.77;;
67896;SDS011;54698;48.428;9.964;2022-11-20T12:57:44;2.83;;;1.03;;
67896;SDS011;54698;48.428;9.964;2022-11-20T13:00:16;2.30;;;0.90;;
67896;SDS011;54698;48.428;9.964;2022-11-20T13:06:05;3.87;;;1.40;;
67896;SDS011;54698;48.428;9.964;2022-11-20T13:08:41;4.90;;;1.13;;
67896;SDS011;54698;48.428;9.964;2022-11-20T13:11:15;2.50;;;1.00;;
67896;SDS011;54698;48.428;9.964;2022-11-20T13:13:56;2.33;;;0.83;;
67896;SDS011;54698;48.428;9.964;2022-11-20T13:16:41;5.53;;;2.47;;
67896;SDS011;54698;48.428;9.964;2022-11-20T13:19:19;2.07;;;0.70;;
67896;SDS011;54698;48.428;9.964;2022-11-20T13:21:46;3.93;;;1.47;;
67896;SDS011;54698;48.428;9.964;2022-11-20T13:24:23;0.80;;;0.60;;
67896;SDS011;54698;48.428;9.964;2022-11-20T13:27:02;1.60;;;0.80;;
67896;SDS011;54698;48.428;9.964;2022-11-20T13:29:42;2.47;;;0.80;;
67896;SDS011;54698;48.428;9.964;2022-11-20T13:32:13;3.83;;;0.90;;
67896;SDS011;54698;48.428;9.964;2022-11-20T13:34:50;1.60;;;0.80;;
67896;SDS011;54698;48.428;9.964;2022-11-20T13:37:24;2.27;;;0.87;;
67896;SDS011;54698;48.428;9.964;2022-11-20T13:40:06;2.47;;;0.80;;
67896;SDS011;54698;48.428;9.964;2022-11-20T13:42:45;1.73;;;0.80;;
67896;SDS011;54698;48.428;9.964;2022-11-20T13:45:22;1.93;;;0.90;;
67896;SDS011;54698;48.428;9.964;2022-11-20T13:47:51;3.53;;;0.70;;
67896;SDS011;54698;48.428;9.964;2022-11-20T13:50:19;2.57;;;1.00;;
67896;SDS011;54698;48.428;9.964;2022-11-20T13:53:15;1.77;;;0.80;;
67896;SDS011;54698;48.428;9.964;2022-11-20T13:56:01;1.60;;;0.77;;
67896;SDS011;54698;48.428;9.964;2022-11-20T13:58:40;1.83;;;0.63;;
67896;SDS011;54698;48.428;9.964;2022-11-20T14:01:19;1.65;;;0.77;;
67896;SDS011;54698;48.428;9.964;2022-11-20T14:03:48;2.40;;;1.37;;
67896;SDS011;54698;48.428;9.964;2022-11-20T14:06:18;2.83;;;0.90;;
67896;SDS011;54698;48.428;9.964;2022-11-20T14:08:51;3.90;;;1.07;;
67896;SDS011;54698;48.428;9.964;2022-11-20T14:11:20;2.53;;;0.90;;
67896;SDS011;54698;48.428;9.964;2022-11-20T14:13:56;5.00;;;0.90;;
67896;SDS011;54698;48.428;9.964;2022-11-20T14:16:25;2.97;;;0.97;;
67896;SDS011;54698;48.428;9.964;2022-11-20T14:18:54;5.97;;;1.93;;
67896;SDS011;54698;48.428;9.964;2022-11-20T14:21:25;2.67;;;1.10;;
67896;SDS011;54698;48.428;9.964;2022-11-20T14:23:54;5.07;;;1.63;;
67896;SDS011;54698;48.428;9.964;2022-11-20T14:26:30;3.43;;;1.10;;
67896;SDS011;54698;48.428;9.964;2022-11-20T14:28:57;3.03;;;0.87;;
67896;SDS011;54698;48.428;9.964;2022-11-20T14:31:23;3.23;;;1.00;;
67896;SDS011;54698;48.428;9.964;2022-11-20T14:33:52;5.00;;;1.30;;
67896;SDS011;54698;48.428;9.964;2022-11-20T14:36:19;1.60;;;1.00;;
67896;SDS011;54698;48.428;9.964;2022-11-20T14:38:48;6.57;;;1.13;;
67896;SDS011;54698;48.428;9.964;2022-11-20T14:41:16;1.83;;;0.90;;
67896;SDS011;54698;48.428;9.964;2022-11-20T14:43:47;2.90;;;1.13;;
67896;SDS011;54698;48.428;9.964;2022-11-20T14:46:18;2.87;;;1.03;;
67896;SDS011;54698;48.428;9.964;2022-11-20T14:48:45;1.53;;;0.60;;
67896;SDS011;54698;48.428;9.964;2022-11-20T14:51:26;4.03;;;1.00;;
67896;SDS011;54698;48.428;9.964;2022-11-20T14:53:56;1.53;;;0.70;;
67896;SDS011;54698;48.428;9.964;2022-11-20T14:56:33;2.43;;;0.80;;
67896;SDS011;54698;48.428;9.964;2022-11-20T14:59:01;1.27;;;0.70;;
67896;SDS011;54698;48.428;9.964;2022-11-20T15:01:28;2.73;;;0.97;;
67896;SDS011;54698;48.428;9.964;2022-11-20T15:03:59;1.93;;;0.87;;
67896;SDS011;54698;48.428;9.964;2022-11-20T15:06:29;0.87;;;0.60;;
67896;SDS011;54698;48.428;9.964;2022-11-20T15:08:55;2.63;;;0.80;;
67896;SDS011;54698;48.428;9.964;2022-11-20T15:11:24;2.13;;;0.80;;